sensor_id;sensor_type;location;lat;lon;timestamp;temperature;humidity
72338;DHT22;60294;64.134;-21.862;2022-11-23T00:00:35;1.20;68.10
72338;DHT22;60294;64.134;-21.862;2022-11-23T00:03:01;1.50;64.80
72338;DHT22;60294;64.134;-21.862;2022-11-23T00:05:28;1.60;63.40
72338;DHT22;60294;64.134;-21.862;2022-11-23T00:07:54;1.70;63.10
72338;DHT22;60294;64.134;-21.862;2022-11-23T00:10:21;1.80;63.30
72338;DHT22;60294;64.134;-21.862;2022-11-23T00:12:46;1.80;63.10
72338;DHT22;60294;64.134;-21.862;2022-11-23T00:15:13;1.80;62.90
72338;DHT22;60294;64.134;-21.862;2022-11-23T00:17:39;1.90;62.30
72338;DHT22;60294;64.134;-21.862;2022-11-23T00:20:06;1.80;61.90
72338;DHT22;60294;64.134;-21.862;2022-11-23T00:22:33;1.80;62.10
72338;DHT22;60294;64.134;-21.862;2022-11-23T00:24:59;1.80;63.40
72338;DHT22;60294;64.134;-21.862;2022-11-23T00:27:25;1.90;63.00
72338;DHT22;60294;64.134;-21.862;2022-11-23T00:29:50;1.90;62.30
72338;DHT22;60294;64.134;-21.862;2022-11-23T00:32:16;1.90;62.70
72338;DHT22;60294;64.134;-21.862;2022-11-23T00:34:42;1.90;63.00
72338;DHT22;60294;64.134;-21.862;2022-11-23T00:37:08;2.00;63.10
72338;DHT22;60294;64.134;-21.862;2022-11-23T00:39:34;1.90;62.70
72338;DHT22;60294;64.134;-21.862;2022-11-23T00:42:00;1.90;63.00
72338;DHT22;60294;64.134;-21.862;2022-11-23T00:44:26;2.00;62.30
72338;DHT22;60294;64.134;-21.862;2022-11-23T00:46:51;2.00;62.70
72338;DHT22;60294;64.134;-21.862;2022-11-23T00:49:17;2.10;63.10
72338;DHT22;60294;64.134;-21.862;2022-11-23T00:51:43;2.10;63.00
72338;DHT22;60294;64.134;-21.862;2022-11-23T00:54:09;2.10;63.60
72338;DHT22;60294;64.134;-21.862;2022-11-23T00:56:35;2.10;63.80
72338;DHT22;60294;64.134;-21.862;2022-11-23T00:59:02;2.20;63.00
72338;DHT22;60294;64.134;-21.862;2022-11-23T01:01:30;2.30;62.30
72338;DHT22;60294;64.134;-21.862;2022-11-23T01:04:00;2.40;61.60
72338;DHT22;60294;64.134;-21.862;2022-11-23T01:06:32;2.50;61.10
72338;DHT22;60294;64.134;-21.862;2022-11-23T01:09:01;2.60;60.90
72338;DHT22;60294;64.134;-21.862;2022-11-23T01:11:29;2.60;60.20
72338;DHT22;60294;64.134;-21.862;2022-11-23T01:13:56;2.80;58.30
72338;DHT22;60294;64.134;-21.862;2022-11-23T01:16:27;2.80;58.60
72338;DHT22;60294;64.134;-21.862;2022-11-23T01:18:58;2.80;58.80
72338;DHT22;60294;64.134;-21.862;2022-11-23T01:21:26;2.80;57.50
72338;DHT22;60294;64.134;-21.862;2022-11-23T01:23:52;2.90;58.70
72338;DHT22;60294;64.134;-21.862;2022-11-23T01:26:18;2.80;58.10
72338;DHT22;60294;64.134;-21.862;2022-11-23T01:28:44;2.80;57.70
72338;DHT22;60294;64.134;-21.862;2022-11-23T01:31:18;2.80;57.30
72338;DHT22;60294;64.134;-21.862;2022-11-23T01:33:45;2.80;58.00
72338;DHT22;60294;64.134;-21.862;2022-11-23T01:36:12;2.80;57.80
72338;DHT22;60294;64.134;-21.862;2022-11-23T01:38:40;2.80;56.90
72338;DHT22;60294;64.134;-21.862;2022-11-23T01:41:13;2.80;56.80
72338;DHT22;60294;64.134;-21.862;2022-11-23T01:43:39;2.80;57.00
72338;DHT22;60294;64.134;-21.862;2022-11-23T01:46:05;2.80;61.80
72338;DHT22;60294;64.134;-21.862;2022-11-23T01:51:05;2.70;61.10
72338;DHT22;60294;64.134;-21.862;2022-11-23T01:53:33;2.60;61.30
72338;DHT22;60294;64.134;-21.862;2022-11-23T01:56:00;2.60;63.20
72338;DHT22;60294;64.134;-21.862;2022-11-23T01:58:29;2.60;63.80
72338;DHT22;60294;64.134;-21.862;2022-11-23T02:00:56;2.60;63.50
72338;DHT22;60294;64.134;-21.862;2022-11-23T02:03:23;2.70;62.70
72338;DHT22;60294;64.134;-21.862;2022-11-23T02:05:53;2.70;63.20
72338;DHT22;60294;64.134;-21.862;2022-11-23T02:08:25;2.70;63.40
72338;DHT22;60294;64.134;-21.862;2022-11-23T02:10:52;2.60;63.80
72338;DHT22;60294;64.134;-21.862;2022-11-23T02:13:18;2.60;63.60
72338;DHT22;60294;64.134;-21.862;2022-11-23T02:15:44;2.60;64.20
72338;DHT22;60294;64.134;-21.862;2022-11-23T02:18:18;2.60;63.80
72338;DHT22;60294;64.134;-21.862;2022-11-23T02:20:45;2.60;63.30
72338;DHT22;60294;64.134;-21.862;2022-11-23T02:28:26;2.60;63.50
72338;DHT22;60294;64.134;-21.862;2022-11-23T02:30:54;2.60;63.70
72338;DHT22;60294;64.134;-21.862;2022-11-23T02:33:20;2.60;63.50
72338;DHT22;60294;64.134;-21.862;2022-11-23T02:35:54;2.60;63.30
72338;DHT22;60294;64.134;-21.862;2022-11-23T02:38:21;2.60;62.30
72338;DHT22;60294;64.134;-21.862;2022-11-23T02:40:48;2.60;63.00
72338;DHT22;60294;64.134;-21.862;2022-11-23T02:43:15;2.60;63.80
72338;DHT22;60294;64.134;-21.862;2022-11-23T02:45:56;2.70;63.60
72338;DHT22;60294;64.134;-21.862;2022-11-23T02:48:22;2.60;63.30
72338;DHT22;60294;64.134;-21.862;2022-11-23T02:50:48;2.70;63.50
72338;DHT22;60294;64.134;-21.862;2022-11-23T02:53:14;2.70;62.10
72338;DHT22;60294;64.134;-21.862;2022-11-23T02:55:40;3.00;59.60
72338;DHT22;60294;64.134;-21.862;2022-11-23T02:58:06;3.00;59.40
72338;DHT22;60294;64.134;-21.862;2022-11-23T03:00:32;3.10;58.30
72338;DHT22;60294;64.134;-21.862;2022-11-23T03:03:00;3.20;59.30
72338;DHT22;60294;64.134;-21.862;2022-11-23T03:05:26;3.30;59.40
72338;DHT22;60294;64.134;-21.862;2022-11-23T03:07:52;3.40;59.00
72338;DHT22;60294;64.134;-21.862;2022-11-23T03:10:19;3.60;57.10
72338;DHT22;60294;64.134;-21.862;2022-11-23T03:12:45;3.60;57.60
72338;DHT22;60294;64.134;-21.862;2022-11-23T03:15:10;3.70;57.80
72338;DHT22;60294;64.134;-21.862;2022-11-23T03:17:36;3.70;58.50
72338;DHT22;60294;64.134;-21.862;2022-11-23T03:20:03;3.70;58.80
72338;DHT22;60294;64.134;-21.862;2022-11-23T03:22:28;3.80;57.80
72338;DHT22;60294;64.134;-21.862;2022-11-23T03:24:54;3.80;58.00
72338;DHT22;60294;64.134;-21.862;2022-11-23T03:27:22;3.80;56.90
72338;DHT22;60294;64.134;-21.862;2022-11-23T03:29:48;3.90;57.80
72338;DHT22;60294;64.134;-21.862;2022-11-23T03:32:14;3.90;58.00
72338;DHT22;60294;64.134;-21.862;2022-11-23T03:34:39;3.90;56.10
72338;DHT22;60294;64.134;-21.862;2022-11-23T03:37:05;3.80;56.50
72338;DHT22;60294;64.134;-21.862;2022-11-23T03:39:31;3.90;56.40
72338;DHT22;60294;64.134;-21.862;2022-11-23T03:41:57;3.80;56.80
72338;DHT22;60294;64.134;-21.862;2022-11-23T03:44:23;3.60;59.80
72338;DHT22;60294;64.134;-21.862;2022-11-23T03:46:49;3.50;59.40
72338;DHT22;60294;64.134;-21.862;2022-11-23T03:49:15;3.50;59.50
72338;DHT22;60294;64.134;-21.862;2022-11-23T03:51:41;3.40;59.80
72338;DHT22;60294;64.134;-21.862;2022-11-23T03:54:07;3.30;59.80
72338;DHT22;60294;64.134;-21.862;2022-11-23T03:56:32;3.20;60.60
72338;DHT22;60294;64.134;-21.862;2022-11-23T03:58:58;3.20;60.80
72338;DHT22;60294;64.134;-21.862;2022-11-23T04:01:24;3.20;59.60
72338;DHT22;60294;64.134;-21.862;2022-11-23T04:03:50;3.10;60.60
72338;DHT22;60294;64.134;-21.862;2022-11-23T04:06:16;3.10;60.00
72338;DHT22;60294;64.134;-21.862;2022-11-23T04:08:42;3.10;60.40
72338;DHT22;60294;64.134;-21.862;2022-11-23T04:11:08;3.10;58.20
72338;DHT22;60294;64.134;-21.862;2022-11-23T04:13:34;3.10;58.80
72338;DHT22;60294;64.134;-21.862;2022-11-23T04:15:59;3.10;60.10
72338;DHT22;60294;64.134;-21.862;2022-11-23T04:18:25;3.00;59.70
72338;DHT22;60294;64.134;-21.862;2022-11-23T04:20:51;3.00;60.20
72338;DHT22;60294;64.134;-21.862;2022-11-23T04:23:17;2.90;61.60
72338;DHT22;60294;64.134;-21.862;2022-11-23T04:25:45;2.90;60.40
72338;DHT22;60294;64.134;-21.862;2022-11-23T04:28:11;3.00;59.10
72338;DHT22;60294;64.134;-21.862;2022-11-23T04:30:37;2.90;60.30
72338;DHT22;60294;64.134;-21.862;2022-11-23T04:33:02;2.90;60.90
72338;DHT22;60294;64.134;-21.862;2022-11-23T04:35:28;2.80;60.60
72338;DHT22;60294;64.134;-21.862;2022-11-23T04:37:54;2.80;60.40
72338;DHT22;60294;64.134;-21.862;2022-11-23T04:40:20;2.80;61.30
72338;DHT22;60294;64.134;-21.862;2022-11-23T04:42:45;2.80;60.90
72338;DHT22;60294;64.134;-21.862;2022-11-23T04:45:11;2.80;61.10
72338;DHT22;60294;64.134;-21.862;2022-11-23T04:47:37;2.80;59.90
72338;DHT22;60294;64.134;-21.862;2022-11-23T04:50:03;2.80;60.70
72338;DHT22;60294;64.134;-21.862;2022-11-23T04:52:29;2.80;60.80
72338;DHT22;60294;64.134;-21.862;2022-11-23T04:54:55;2.70;61.20
72338;DHT22;60294;64.134;-21.862;2022-11-23T04:57:21;2.80;61.10
72338;DHT22;60294;64.134;-21.862;2022-11-23T04:59:46;2.70;61.30
72338;DHT22;60294;64.134;-21.862;2022-11-23T05:02:12;2.70;62.20
72338;DHT22;60294;64.134;-21.862;2022-11-23T05:04:38;2.70;62.70
72338;DHT22;60294;64.134;-21.862;2022-11-23T05:07:04;2.70;62.30
72338;DHT22;60294;64.134;-21.862;2022-11-23T05:09:31;2.70;63.30
72338;DHT22;60294;64.134;-21.862;2022-11-23T05:11:57;2.80;63.10
72338;DHT22;60294;64.134;-21.862;2022-11-23T05:14:23;2.80;61.70
72338;DHT22;60294;64.134;-21.862;2022-11-23T05:16:49;2.70;63.00
72338;DHT22;60294;64.134;-21.862;2022-11-23T05:19:15;2.70;62.60
72338;DHT22;60294;64.134;-21.862;2022-11-23T05:21:41;2.70;63.40
72338;DHT22;60294;64.134;-21.862;2022-11-23T05:24:06;2.70;63.60
72338;DHT22;60294;64.134;-21.862;2022-11-23T05:26:32;2.80;63.20
72338;DHT22;60294;64.134;-21.862;2022-11-23T05:28:58;2.80;62.90
72338;DHT22;60294;64.134;-21.862;2022-11-23T05:31:24;2.90;63.00
72338;DHT22;60294;64.134;-21.862;2022-11-23T05:33:50;2.90;62.50
72338;DHT22;60294;64.134;-21.862;2022-11-23T05:36:15;2.90;61.60
72338;DHT22;60294;64.134;-21.862;2022-11-23T05:38:41;2.90;62.30
72338;DHT22;60294;64.134;-21.862;2022-11-23T05:41:08;3.00;61.70
72338;DHT22;60294;64.134;-21.862;2022-11-23T05:43:33;3.00;60.80
72338;DHT22;60294;64.134;-21.862;2022-11-23T05:46:00;3.00;60.90
72338;DHT22;60294;64.134;-21.862;2022-11-23T05:48:26;3.10;61.40
72338;DHT22;60294;64.134;-21.862;2022-11-23T05:50:52;3.10;61.30
72338;DHT22;60294;64.134;-21.862;2022-11-23T05:53:18;3.10;62.20
72338;DHT22;60294;64.134;-21.862;2022-11-23T05:55:44;3.10;61.20
72338;DHT22;60294;64.134;-21.862;2022-11-23T05:58:10;3.10;62.30
72338;DHT22;60294;64.134;-21.862;2022-11-23T06:00:36;3.10;62.40
72338;DHT22;60294;64.134;-21.862;2022-11-23T06:03:03;3.10;61.70
72338;DHT22;60294;64.134;-21.862;2022-11-23T06:05:29;3.10;61.60
72338;DHT22;60294;64.134;-21.862;2022-11-23T06:07:55;3.10;62.00
72338;DHT22;60294;64.134;-21.862;2022-11-23T06:10:21;3.10;62.40
72338;DHT22;60294;64.134;-21.862;2022-11-23T06:12:46;3.20;62.10
72338;DHT22;60294;64.134;-21.862;2022-11-23T06:15:15;3.10;61.30
72338;DHT22;60294;64.134;-21.862;2022-11-23T06:17:40;3.10;61.10
72338;DHT22;60294;64.134;-21.862;2022-11-23T06:20:07;3.10;61.90
72338;DHT22;60294;64.134;-21.862;2022-11-23T06:22:33;3.10;61.40
72338;DHT22;60294;64.134;-21.862;2022-11-23T06:24:59;3.10;61.80
72338;DHT22;60294;64.134;-21.862;2022-11-23T06:27:25;3.10;62.20
72338;DHT22;60294;64.134;-21.862;2022-11-23T06:29:51;3.10;61.90
72338;DHT22;60294;64.134;-21.862;2022-11-23T06:32:17;3.10;62.50
72338;DHT22;60294;64.134;-21.862;2022-11-23T06:34:43;3.10;61.90
72338;DHT22;60294;64.134;-21.862;2022-11-23T06:37:09;3.10;62.00
72338;DHT22;60294;64.134;-21.862;2022-11-23T06:39:35;3.10;62.40
72338;DHT22;60294;64.134;-21.862;2022-11-23T06:42:01;3.10;62.70
72338;DHT22;60294;64.134;-21.862;2022-11-23T06:44:26;3.10;62.50
72338;DHT22;60294;64.134;-21.862;2022-11-23T06:46:52;3.10;61.60
72338;DHT22;60294;64.134;-21.862;2022-11-23T06:49:18;3.10;63.00
72338;DHT22;60294;64.134;-21.862;2022-11-23T06:51:46;3.10;61.80
72338;DHT22;60294;64.134;-21.862;2022-11-23T06:54:12;3.10;61.90
72338;DHT22;60294;64.134;-21.862;2022-11-23T06:56:37;3.10;62.30
72338;DHT22;60294;64.134;-21.862;2022-11-23T06:59:03;3.10;62.80
72338;DHT22;60294;64.134;-21.862;2022-11-23T07:01:29;3.10;62.20
72338;DHT22;60294;64.134;-21.862;2022-11-23T07:03:55;3.10;62.50
72338;DHT22;60294;64.134;-21.862;2022-11-23T07:06:21;3.10;62.10
72338;DHT22;60294;64.134;-21.862;2022-11-23T07:08:46;3.10;62.00
72338;DHT22;60294;64.134;-21.862;2022-11-23T07:11:12;3.20;63.10
72338;DHT22;60294;64.134;-21.862;2022-11-23T07:13:38;3.20;63.30
72338;DHT22;60294;64.134;-21.862;2022-11-23T07:16:05;3.20;63.60
72338;DHT22;60294;64.134;-21.862;2022-11-23T07:18:31;3.20;62.80
72338;DHT22;60294;64.134;-21.862;2022-11-23T07:20:58;3.20;62.90
72338;DHT22;60294;64.134;-21.862;2022-11-23T07:23:24;3.20;62.50
72338;DHT22;60294;64.134;-21.862;2022-11-23T07:25:50;3.20;62.50
72338;DHT22;60294;64.134;-21.862;2022-11-23T07:28:16;3.20;62.70
72338;DHT22;60294;64.134;-21.862;2022-11-23T07:30:42;3.30;62.60
72338;DHT22;60294;64.134;-21.862;2022-11-23T07:33:10;3.30;62.00
72338;DHT22;60294;64.134;-21.862;2022-11-23T07:35:37;3.30;62.30
72338;DHT22;60294;64.134;-21.862;2022-11-23T07:38:03;3.20;61.90
72338;DHT22;60294;64.134;-21.862;2022-11-23T07:40:30;3.20;61.30
72338;DHT22;60294;64.134;-21.862;2022-11-23T07:43:00;3.20;62.10
72338;DHT22;60294;64.134;-21.862;2022-11-23T07:45:27;3.10;62.50
72338;DHT22;60294;64.134;-21.862;2022-11-23T07:48:04;3.10;62.90
72338;DHT22;60294;64.134;-21.862;2022-11-23T07:50:30;3.10;63.20
72338;DHT22;60294;64.134;-21.862;2022-11-23T07:52:57;3.10;63.40
72338;DHT22;60294;64.134;-21.862;2022-11-23T07:55:23;3.10;63.10
72338;DHT22;60294;64.134;-21.862;2022-11-23T07:57:53;3.10;62.90
72338;DHT22;60294;64.134;-21.862;2022-11-23T08:00:20;3.20;62.90
72338;DHT22;60294;64.134;-21.862;2022-11-23T08:02:46;3.20;62.30
72338;DHT22;60294;64.134;-21.862;2022-11-23T08:05:14;3.10;62.50
72338;DHT22;60294;64.134;-21.862;2022-11-23T08:07:40;3.20;62.30
72338;DHT22;60294;64.134;-21.862;2022-11-23T08:10:06;3.10;62.60
72338;DHT22;60294;64.134;-21.862;2022-11-23T08:12:32;3.10;62.30
72338;DHT22;60294;64.134;-21.862;2022-11-23T08:14:58;3.10;61.60
72338;DHT22;60294;64.134;-21.862;2022-11-23T08:17:23;3.20;62.30
72338;DHT22;60294;64.134;-21.862;2022-11-23T08:19:49;3.10;62.20
72338;DHT22;60294;64.134;-21.862;2022-11-23T08:22:15;3.10;61.90
72338;DHT22;60294;64.134;-21.862;2022-11-23T08:24:41;3.10;61.10
72338;DHT22;60294;64.134;-21.862;2022-11-23T08:27:07;3.20;61.90
72338;DHT22;60294;64.134;-21.862;2022-11-23T08:29:33;3.10;61.80
72338;DHT22;60294;64.134;-21.862;2022-11-23T08:31:58;3.20;61.80
72338;DHT22;60294;64.134;-21.862;2022-11-23T08:34:24;3.30;61.90
72338;DHT22;60294;64.134;-21.862;2022-11-23T08:36:50;3.30;60.90
72338;DHT22;60294;64.134;-21.862;2022-11-23T08:39:16;3.30;60.70
72338;DHT22;60294;64.134;-21.862;2022-11-23T08:41:44;3.30;61.90
72338;DHT22;60294;64.134;-21.862;2022-11-23T08:44:10;3.30;61.40
72338;DHT22;60294;64.134;-21.862;2022-11-23T08:46:37;3.30;61.00
72338;DHT22;60294;64.134;-21.862;2022-11-23T08:49:03;3.30;61.10
72338;DHT22;60294;64.134;-21.862;2022-11-23T08:51:29;3.30;61.60
72338;DHT22;60294;64.134;-21.862;2022-11-23T08:53:55;3.40;61.10
72338;DHT22;60294;64.134;-21.862;2022-11-23T08:56:21;3.40;60.50
72338;DHT22;60294;64.134;-21.862;2022-11-23T08:58:47;3.40;59.20
72338;DHT22;60294;64.134;-21.862;2022-11-23T09:01:14;3.60;58.30
72338;DHT22;60294;64.134;-21.862;2022-11-23T09:03:41;3.60;59.40
72338;DHT22;60294;64.134;-21.862;2022-11-23T09:06:08;3.60;58.00
72338;DHT22;60294;64.134;-21.862;2022-11-23T09:08:34;3.70;57.90
72338;DHT22;60294;64.134;-21.862;2022-11-23T09:11:02;3.70;56.80
72338;DHT22;60294;64.134;-21.862;2022-11-23T09:13:28;3.60;57.70
72338;DHT22;60294;64.134;-21.862;2022-11-23T09:15:58;3.70;58.10
72338;DHT22;60294;64.134;-21.862;2022-11-23T09:18:25;3.70;57.10
72338;DHT22;60294;64.134;-21.862;2022-11-23T09:20:51;3.70;57.10
72338;DHT22;60294;64.134;-21.862;2022-11-23T09:23:17;3.80;57.00
72338;DHT22;60294;64.134;-21.862;2022-11-23T09:25:43;3.70;56.20
72338;DHT22;60294;64.134;-21.862;2022-11-23T09:28:13;3.80;55.40
72338;DHT22;60294;64.134;-21.862;2022-11-23T09:30:40;3.80;55.20
72338;DHT22;60294;64.134;-21.862;2022-11-23T09:33:06;3.80;54.80
72338;DHT22;60294;64.134;-21.862;2022-11-23T09:35:33;3.90;54.70
72338;DHT22;60294;64.134;-21.862;2022-11-23T09:37:59;4.00;54.40
72338;DHT22;60294;64.134;-21.862;2022-11-23T09:40:32;3.90;54.60
72338;DHT22;60294;64.134;-21.862;2022-11-23T09:43:34;4.00;54.00
72338;DHT22;60294;64.134;-21.862;2022-11-23T09:46:23;4.00;54.60
72338;DHT22;60294;64.134;-21.862;2022-11-23T09:49:22;4.00;54.60
72338;DHT22;60294;64.134;-21.862;2022-11-23T09:51:54;4.00;53.90
72338;DHT22;60294;64.134;-21.862;2022-11-23T09:54:22;4.10;53.40
72338;DHT22;60294;64.134;-21.862;2022-11-23T09:56:52;4.10;54.20
72338;DHT22;60294;64.134;-21.862;2022-11-23T09:59:41;4.00;54.60
72338;DHT22;60294;64.134;-21.862;2022-11-23T10:02:22;3.90;55.80
72338;DHT22;60294;64.134;-21.862;2022-11-23T10:04:52;4.00;53.60
72338;DHT22;60294;64.134;-21.862;2022-11-23T10:10:44;4.20;50.90
72338;DHT22;60294;64.134;-21.862;2022-11-23T10:23:55;4.20;52.50
72338;DHT22;60294;64.134;-21.862;2022-11-23T10:26:33;4.30;50.20
72338;DHT22;60294;64.134;-21.862;2022-11-23T10:29:15;4.30;50.90
72338;DHT22;60294;64.134;-21.862;2022-11-23T10:31:47;4.30;51.80
72338;DHT22;60294;64.134;-21.862;2022-11-23T10:34:16;4.20;51.70
72338;DHT22;60294;64.134;-21.862;2022-11-23T10:36:45;4.30;50.80
72338;DHT22;60294;64.134;-21.862;2022-11-23T10:41:43;4.30;51.20
72338;DHT22;60294;64.134;-21.862;2022-11-23T10:46:39;4.40;50.20
72338;DHT22;60294;64.134;-21.862;2022-11-23T10:51:57;4.40;50.00
72338;DHT22;60294;64.134;-21.862;2022-11-23T10:54:39;4.30;51.00
72338;DHT22;60294;64.134;-21.862;2022-11-23T10:57:41;4.30;51.00
72338;DHT22;60294;64.134;-21.862;2022-11-23T11:02:42;4.30;51.30
72338;DHT22;60294;64.134;-21.862;2022-11-23T11:05:37;4.40;50.60
72338;DHT22;60294;64.134;-21.862;2022-11-23T11:08:13;4.50;49.10
72338;DHT22;60294;64.134;-21.862;2022-11-23T11:10:47;4.40;50.70
72338;DHT22;60294;64.134;-21.862;2022-11-23T11:13:22;4.40;51.80
72338;DHT22;60294;64.134;-21.862;2022-11-23T11:16:21;4.50;50.60
72338;DHT22;60294;64.134;-21.862;2022-11-23T11:18:47;4.30;51.30
72338;DHT22;60294;64.134;-21.862;2022-11-23T11:24:02;4.40;53.00
72338;DHT22;60294;64.134;-21.862;2022-11-23T11:26:29;4.40;50.20
72338;DHT22;60294;64.134;-21.862;2022-11-23T11:29:04;4.50;50.00
72338;DHT22;60294;64.134;-21.862;2022-11-23T11:31:49;4.60;50.70
72338;DHT22;60294;64.134;-21.862;2022-11-23T11:34:29;4.70;50.30
72338;DHT22;60294;64.134;-21.862;2022-11-23T11:37:07;4.60;51.00
72338;DHT22;60294;64.134;-21.862;2022-11-23T11:39:41;4.60;50.50
72338;DHT22;60294;64.134;-21.862;2022-11-23T11:42:18;4.70;50.60
72338;DHT22;60294;64.134;-21.862;2022-11-23T11:44:47;4.70;49.00
72338;DHT22;60294;64.134;-21.862;2022-11-23T11:47:22;4.70;50.80
72338;DHT22;60294;64.134;-21.862;2022-11-23T11:49:52;4.70;50.80
72338;DHT22;60294;64.134;-21.862;2022-11-23T11:52:23;4.60;49.30
72338;DHT22;60294;64.134;-21.862;2022-11-23T11:57:49;4.60;51.20
72338;DHT22;60294;64.134;-21.862;2022-11-23T12:00:19;4.50;50.70
72338;DHT22;60294;64.134;-21.862;2022-11-23T12:03:05;4.50;51.90
72338;DHT22;60294;64.134;-21.862;2022-11-23T12:05:40;4.50;50.40
72338;DHT22;60294;64.134;-21.862;2022-11-23T12:08:54;4.50;50.70
72338;DHT22;60294;64.134;-21.862;2022-11-23T12:10:59;4.50;50.00
72338;DHT22;60294;64.134;-21.862;2022-11-23T12:13:36;4.50;49.00
72338;DHT22;60294;64.134;-21.862;2022-11-23T12:16:46;4.40;50.40
72338;DHT22;60294;64.134;-21.862;2022-11-23T12:19:18;4.40;50.00
72338;DHT22;60294;64.134;-21.862;2022-11-23T12:24:40;4.30;51.00
72338;DHT22;60294;64.134;-21.862;2022-11-23T12:30:19;4.30;52.20
72338;DHT22;60294;64.134;-21.862;2022-11-23T12:58:30;4.10;53.50
72338;DHT22;60294;64.134;-21.862;2022-11-23T13:17:57;4.40;54.30
72338;DHT22;60294;64.134;-21.862;2022-11-23T13:20:27;4.40;53.30
72338;DHT22;60294;64.134;-21.862;2022-11-23T13:22:59;4.40;53.20
72338;DHT22;60294;64.134;-21.862;2022-11-23T13:25:27;4.50;52.30
72338;DHT22;60294;64.134;-21.862;2022-11-23T13:28:04;4.50;52.50
72338;DHT22;60294;64.134;-21.862;2022-11-23T13:30:37;4.60;51.80
72338;DHT22;60294;64.134;-21.862;2022-11-23T13:40:38;4.70;51.30
72338;DHT22;60294;64.134;-21.862;2022-11-23T13:45:39;4.70;51.10
72338;DHT22;60294;64.134;-21.862;2022-11-23T13:53:31;4.80;49.50
72338;DHT22;60294;64.134;-21.862;2022-11-23T13:56:23;4.80;50.30
72338;DHT22;60294;64.134;-21.862;2022-11-23T13:58:54;4.90;49.90
72338;DHT22;60294;64.134;-21.862;2022-11-23T14:04:45;5.00;49.90
72338;DHT22;60294;64.134;-21.862;2022-11-23T14:07:28;5.00;48.70
72338;DHT22;60294;64.134;-21.862;2022-11-23T14:10:18;4.90;50.70
72338;DHT22;60294;64.134;-21.862;2022-11-23T14:15:25;4.80;51.60
72338;DHT22;60294;64.134;-21.862;2022-11-23T14:18:04;4.90;49.50
72338;DHT22;60294;64.134;-21.862;2022-11-23T14:20:54;4.80;50.60
72338;DHT22;60294;64.134;-21.862;2022-11-23T14:23:30;5.00;47.00
72338;DHT22;60294;64.134;-21.862;2022-11-23T14:37:35;5.20;45.20
72338;DHT22;60294;64.134;-21.862;2022-11-23T14:42:53;5.20;46.10
72338;DHT22;60294;64.134;-21.862;2022-11-23T14:45:21;5.20;45.90
72338;DHT22;60294;64.134;-21.862;2022-11-23T14:47:47;5.20;46.40
72338;DHT22;60294;64.134;-21.862;2022-11-23T14:52:47;5.20;47.00
72338;DHT22;60294;64.134;-21.862;2022-11-23T14:55:18;5.20;46.30
72338;DHT22;60294;64.134;-21.862;2022-11-23T14:57:46;5.30;46.40
72338;DHT22;60294;64.134;-21.862;2022-11-23T15:00:37;5.30;46.20
72338;DHT22;60294;64.134;-21.862;2022-11-23T15:03:16;5.40;46.00
72338;DHT22;60294;64.134;-21.862;2022-11-23T15:06:11;5.50;46.30
72338;DHT22;60294;64.134;-21.862;2022-11-23T15:08:49;5.50;46.40
72338;DHT22;60294;64.134;-21.862;2022-11-23T15:11:20;5.40;46.80
72338;DHT22;60294;64.134;-21.862;2022-11-23T15:13:50;5.40;46.50
72338;DHT22;60294;64.134;-21.862;2022-11-23T15:16:18;5.30;46.80
72338;DHT22;60294;64.134;-21.862;2022-11-23T15:18:45;5.20;47.60
72338;DHT22;60294;64.134;-21.862;2022-11-23T15:23:43;5.30;47.20
72338;DHT22;60294;64.134;-21.862;2022-11-23T15:26:18;5.40;47.00
72338;DHT22;60294;64.134;-21.862;2022-11-23T15:28:45;5.30;47.40
72338;DHT22;60294;64.134;-21.862;2022-11-23T15:31:32;5.40;47.10
72338;DHT22;60294;64.134;-21.862;2022-11-23T15:34:01;5.40;47.60
72338;DHT22;60294;64.134;-21.862;2022-11-23T15:36:36;5.30;47.80
72338;DHT22;60294;64.134;-21.862;2022-11-23T15:39:03;5.30;47.90
72338;DHT22;60294;64.134;-21.862;2022-11-23T15:41:35;5.20;48.30
72338;DHT22;60294;64.134;-21.862;2022-11-23T15:46:46;5.30;48.70
72338;DHT22;60294;64.134;-21.862;2022-11-23T15:49:14;5.30;48.90
72338;DHT22;60294;64.134;-21.862;2022-11-23T15:51:41;5.30;49.10
72338;DHT22;60294;64.134;-21.862;2022-11-23T15:54:21;5.40;49.50
72338;DHT22;60294;64.134;-21.862;2022-11-23T15:56:49;5.40;48.30
72338;DHT22;60294;64.134;-21.862;2022-11-23T15:59:43;5.40;49.10
72338;DHT22;60294;64.134;-21.862;2022-11-23T16:02:19;5.50;48.60
72338;DHT22;60294;64.134;-21.862;2022-11-23T16:04:46;5.50;48.10
72338;DHT22;60294;64.134;-21.862;2022-11-23T16:07:20;5.50;48.30
72338;DHT22;60294;64.134;-21.862;2022-11-23T16:12:33;5.50;47.60
72338;DHT22;60294;64.134;-21.862;2022-11-23T16:18:04;5.50;48.50
72338;DHT22;60294;64.134;-21.862;2022-11-23T16:20:31;5.50;48.60
72338;DHT22;60294;64.134;-21.862;2022-11-23T16:22:57;5.50;48.40
72338;DHT22;60294;64.134;-21.862;2022-11-23T16:25:34;5.40;48.60
72338;DHT22;60294;64.134;-21.862;2022-11-23T16:30:38;5.30;49.40
72338;DHT22;60294;64.134;-21.862;2022-11-23T16:33:05;5.30;49.40
72338;DHT22;60294;64.134;-21.862;2022-11-23T16:35:36;5.30;49.80
72338;DHT22;60294;64.134;-21.862;2022-11-23T16:38:02;5.30;50.20
72338;DHT22;60294;64.134;-21.862;2022-11-23T16:40:30;5.20;50.30
72338;DHT22;60294;64.134;-21.862;2022-11-23T16:42:55;5.20;50.60
72338;DHT22;60294;64.134;-21.862;2022-11-23T16:45:21;5.20;50.60
72338;DHT22;60294;64.134;-21.862;2022-11-23T16:47:58;5.20;51.00
72338;DHT22;60294;64.134;-21.862;2022-11-23T16:50:30;5.20;50.70
72338;DHT22;60294;64.134;-21.862;2022-11-23T16:52:56;5.20;51.10
72338;DHT22;60294;64.134;-21.862;2022-11-23T16:55:25;5.20;51.10
72338;DHT22;60294;64.134;-21.862;2022-11-23T16:57:51;5.10;51.10
72338;DHT22;60294;64.134;-21.862;2022-11-23T17:00:20;5.20;51.90
72338;DHT22;60294;64.134;-21.862;2022-11-23T17:02:47;5.10;51.50
72338;DHT22;60294;64.134;-21.862;2022-11-23T17:05:20;5.20;51.60
72338;DHT22;60294;64.134;-21.862;2022-11-23T17:07:48;5.20;52.30
72338;DHT22;60294;64.134;-21.862;2022-11-23T17:10:14;5.20;53.00
72338;DHT22;60294;64.134;-21.862;2022-11-23T17:12:50;5.20;52.30
72338;DHT22;60294;64.134;-21.862;2022-11-23T17:15:22;5.20;52.40
72338;DHT22;60294;64.134;-21.862;2022-11-23T17:17:48;5.30;52.00
72338;DHT22;60294;64.134;-21.862;2022-11-23T17:20:16;5.30;52.10
72338;DHT22;60294;64.134;-21.862;2022-11-23T17:22:42;5.30;52.50
72338;DHT22;60294;64.134;-21.862;2022-11-23T17:25:09;5.30;53.70
72338;DHT22;60294;64.134;-21.862;2022-11-23T17:27:38;5.20;54.20
72338;DHT22;60294;64.134;-21.862;2022-11-23T17:30:15;5.20;55.00
72338;DHT22;60294;64.134;-21.862;2022-11-23T17:32:42;5.10;54.40
72338;DHT22;60294;64.134;-21.862;2022-11-23T17:35:08;5.20;55.00
72338;DHT22;60294;64.134;-21.862;2022-11-23T17:37:34;5.30;54.50
72338;DHT22;60294;64.134;-21.862;2022-11-23T17:40:00;5.30;53.30
72338;DHT22;60294;64.134;-21.862;2022-11-23T17:42:26;5.40;53.70
72338;DHT22;60294;64.134;-21.862;2022-11-23T17:44:52;5.50;53.10